Time;durP1;ratioP1;P1;durP2;ratioP2;P2;SDS_P1;SDS_P2;PMS_P1;PMS_P2;Temp;Humidity;BMP_temperature;BMP_pressure;BME280_temperature;BME280_humidity;BME280_pressure;Samples;Min_cycle;Max_cycle;Signal;HPM_P1;HPM_P2
2022/03/21 00:00:52;;;;;;;;;;;;;;;;;;5114453;28;19916;-73
2022/03/21 00:03:19;;;;;;;;;;;;;;;;;;5114980;28;19922;-73
2022/03/21 00:05:45;;;;;;;;;;;;;;;;;;5114795;28;19919;-73
2022/03/21 00:08:11;;;;;;;;;;;;;;;;;;5115013;28;19916;-73
2022/03/21 00:10:37;;;;;;;;;;;;;;;;;;5114861;28;20278;-72
2022/03/21 00:13:03;;;;;;;;;;;;;;;;;;5115059;28;19923;-72
2022/03/21 00:15:30;;;;;;;;;;;;;;;;;;5113825;28;19968;-73
2022/03/21 00:17:56;;;;;;;;;;;;;;;;;;5114758;28;20257;-72
2022/03/21 00:20:22;;;;;;;;;;;;;;;;;;5113689;28;19922;-73
2022/03/21 00:22:47;;;;;;;;;;;;;;;;;;5113915;28;20308;-72
2022/03/21 00:25:12;;;;;;;;;;;;;;;;;;5114305;28;20002;-73
2022/03/21 00:27:38;;;;;;;;;;;;;;;;;;5114785;28;19923;-73
2022/03/21 00:30:09;;;;;;;;;;;;;;;;;;5113528;28;19963;-73
2022/03/21 00:32:35;;;;;;;;;;;;;;;;;;5112742;28;19920;-73
2022/03/21 00:35:01;;;;;;;;;;;;;;;;;;5114292;28;19915;-73
2022/03/21 00:37:27;;;;;;;;;;;;;;;;;;5114149;28;19920;-72
2022/03/21 00:39:53;;;;;;;;;;;;;;;;;;5114283;28;19916;-72
2022/03/21 00:42:18;;;;;;;;;;;;;;;;;;5112337;28;19916;-72
2022/03/21 00:44:44;;;;;;;;;;;;;;;;;;5114391;28;20303;-73
2022/03/21 00:47:10;;;;;;;;;;;;;;;;;;5114382;28;20269;-73
2022/03/21 00:49:35;;;;;;;;;;;;;;;;;;5114159;28;20305;-73
2022/03/21 00:52:01;;;;;;;;;;;;;;;;;;5114240;28;19916;-72
2022/03/21 00:54:26;;;;;;;;;;;;;;;;;;5112703;28;20007;-73
2022/03/21 00:56:52;;;;;;;;;;;;;;;;;;5113307;28;19927;-73
2022/03/21 00:59:17;;;;;;;;;;;;;;;;;;5114126;28;19922;-73
2022/03/21 01:01:43;;;;;;;;;;;;;;;;;;5114034;28;19987;-73
2022/03/21 01:04:08;;;;;;;;;;;;;;;;;;5113748;27;19916;-73
2022/03/21 01:06:35;;;;;;;;;;;;;;;;;;5114014;28;20274;-73
2022/03/21 01:09:00;;;;;;;;;;;;;;;;;;5112628;28;19915;-73
2022/03/21 01:11:26;;;;;;;;;;;;;;;;;;5113916;27;19923;-73
2022/03/21 01:13:51;;;;;;;;;;;;;;;;;;5112715;28;19968;-72
2022/03/21 01:16:17;;;;;;;;;;;;;;;;;;5114091;28;20269;-73
2022/03/21 01:18:45;;;;;;;;;;;;;;;;;;5113882;28;20007;-73
2022/03/21 01:21:10;;;;;;;;;;;;;;;;;;5113846;28;20277;-72
2022/03/21 01:23:35;;;;;;;;;;;;;;;;;;5113051;28;19916;-72
2022/03/21 01:26:01;;;;;;;;;;;;;;;;;;5113207;28;19955;-72
2022/03/21 01:28:26;;;;;;;;;;;;;;;;;;5113716;28;20362;-72
2022/03/21 01:30:51;;;;;;;;;;;;;;;;;;5113764;28;19923;-73
2022/03/21 01:33:18;;;;;;;;;;;;;;;;;;5113539;28;19927;-73
2022/03/21 01:35:43;;;;;;;;;;;;;;;;;;5113359;28;19922;-72
2022/03/21 01:38:08;;;;;;;;;;;;;;;;;;5113552;28;19920;-72
2022/03/21 01:40:34;;;;;;;;;;;;;;;;;;5112812;28;20018;-73
2022/03/21 01:42:59;;;;;;;;;;;;;;;;;;5115092;28;19959;-73
2022/03/21 01:45:27;;;;;;;;;;;;;;;;;;5117387;28;20356;-73
2022/03/21 01:47:53;;;;;;;;;;;;;;;;;;5117387;28;19916;-73
2022/03/21 01:50:18;;;;;;;;;;;;;;;;;;5117392;28;19922;-72
2022/03/21 01:52:44;;;;;;;;;;;;;;;;;;5116782;28;20392;-73
2022/03/21 01:57:53;;;;;;;;;;;;;;;;;;5117404;28;19959;-73
2022/03/21 02:00:21;;;;;;;;;;;;;;;;;;5116767;28;19915;-73
2022/03/21 02:02:46;;;;;;;;;;;;;;;;;;5117321;28;19915;-73
2022/03/21 02:05:12;;;;;;;;;;;;;;;;;;5117349;28;19923;-73
2022/03/21 02:07:37;;;;;;;;;;;;;;;;;;5117159;28;19916;-72
2022/03/21 02:10:04;;;;;;;;;;;;;;;;;;5117332;28;19916;-73
2022/03/21 02:12:29;;;;;;;;;;;;;;;;;;5117024;28;19916;-72
2022/03/21 02:14:55;;;;;;;;;;;;;;;;;;5117142;28;19922;-72
2022/03/21 02:17:22;;;;;;;;;;;;;;;;;;5117173;28;20353;-73
2022/03/21 02:19:47;;;;;;;;;;;;;;;;;;5116809;28;19916;-73
2022/03/21 02:22:25;;;;;;;;;;;;;;;;;;5116877;27;20266;-73
2022/03/21 02:24:53;;;;;;;;;;;;;;;;;;5116850;28;20352;-73
2022/03/21 02:27:19;;;;;;;;;;;;;;;;;;5116034;28;20019;-73
2022/03/21 02:29:48;;;;;;;;;;;;;;;;;;5116863;28;20014;-73
2022/03/21 02:32:14;;;;;;;;;;;;;;;;;;5115326;28;19919;-73
2022/03/21 02:34:39;;;;;;;;;;;;;;;;;;5116126;28;19961;-73
2022/03/21 02:37:07;;;;;;;;;;;;;;;;;;5116561;27;19926;-73
2022/03/21 02:39:34;;;;;;;;;;;;;;;;;;5116315;27;19916;-73
2022/03/21 02:41:59;;;;;;;;;;;;;;;;;;5115733;27;20006;-73
2022/03/21 02:44:31;;;;;;;;;;;;;;;;;;5116340;28;20003;-73
2022/03/21 02:46:58;;;;;;;;;;;;;;;;;;5115509;28;19920;-73
2022/03/21 02:49:23;;;;;;;;;;;;;;;;;;5116560;28;19920;-73
2022/03/21 02:51:49;;;;;;;;;;;;;;;;;;5116131;28;20084;-73
2022/03/21 02:54:18;;;;;;;;;;;;;;;;;;5114652;28;19920;-73
2022/03/21 02:56:44;;;;;;;;;;;;;;;;;;5114277;28;20438;-73
2022/03/21 02:59:09;;;;;;;;;;;;;;;;;;5114861;28;20010;-73
2022/03/21 03:01:36;;;;;;;;;;;;;;;;;;5114699;28;20048;-73
2022/03/21 03:04:01;;;;;;;;;;;;;;;;;;5114860;28;19923;-73
2022/03/21 03:06:27;;;;;;;;;;;;;;;;;;5114580;28;19916;-73
2022/03/21 03:08:54;;;;;;;;;;;;;;;;;;5114893;28;19923;-73
2022/03/21 03:11:19;;;;;;;;;;;;;;;;;;5116090;28;20281;-73
2022/03/21 03:13:44;;;;;;;;;;;;;;;;;;5115688;28;19915;-73
2022/03/21 03:16:11;;;;;;;;;;;;;;;;;;5114346;28;20428;-73
2022/03/21 03:18:36;;;;;;;;;;;;;;;;;;5115875;28;19963;-73
2022/03/21 03:21:01;;;;;;;;;;;;;;;;;;5115765;28;20010;-73
2022/03/21 03:23:29;;;;;;;;;;;;;;;;;;5115986;28;20010;-73
2022/03/21 03:25:57;;;;;;;;;;;;;;;;;;5114532;28;19930;-73
2022/03/21 03:28:23;;;;;;;;;;;;;;;;;;5114553;28;19919;-73
2022/03/21 03:30:48;;;;;;;;;;;;;;;;;;5115810;28;19923;-73
2022/03/21 03:33:14;;;;;;;;;;;;;;;;;;5115326;28;19963;-73
2022/03/21 03:35:39;;;;;;;;;;;;;;;;;;5114177;28;19999;-73
2022/03/21 03:38:05;;;;;;;;;;;;;;;;;;5115585;28;19926;-73
2022/03/21 03:40:30;;;;;;;;;;;;;;;;;;5115475;28;19912;-73
2022/03/21 03:42:55;;;;;;;;;;;;;;;;;;5114547;28;19915;-73
2022/03/21 03:45:21;;;;;;;;;;;;;;;;;;5115435;27;19922;-73
2022/03/21 03:47:46;;;;;;;;;;;;;;;;;;5114285;28;20049;-73
2022/03/21 03:50:12;;;;;;;;;;;;;;;;;;5114346;28;19964;-73
2022/03/21 03:52:38;;;;;;;;;;;;;;;;;;5115305;28;19937;-73
2022/03/21 03:55:03;;;;;;;;;;;;;;;;;;5115256;28;19916;-73
2022/03/21 03:57:29;;;;;;;;;;;;;;;;;;5113785;28;19966;-73
2022/03/21 03:59:54;;;;;;;;;;;;;;;;;;5115228;28;19943;-73
2022/03/21 04:02:19;;;;;;;;;;;;;;;;;;5115233;28;19915;-73
2022/03/21 04:04:45;;;;;;;;;;;;;;;;;;5113805;28;19915;-72
2022/03/21 04:07:10;;;;;;;;;;;;;;;;;;5112697;28;19923;-72
2022/03/21 04:09:35;;;;;;;;;;;;;;;;;;5114906;28;20444;-73
2022/03/21 04:12:02;;;;;;;;;;;;;;;;;;5114999;28;19941;-73
2022/03/21 04:14:28;;;;;;;;;;;;;;;;;;5114196;28;20010;-73
2022/03/21 04:16:54;;;;;;;;;;;;;;;;;;5114873;28;20015;-73
2022/03/21 04:19:19;;;;;;;;;;;;;;;;;;5113743;28;20019;-73
2022/03/21 04:21:45;;;;;;;;;;;;;;;;;;5114722;28;19915;-73
2022/03/21 04:24:10;;;;;;;;;;;;;;;;;;5114613;28;20006;-73
2022/03/21 04:26:35;;;;;;;;;;;;;;;;;;5114716;28;19915;-73
2022/03/21 04:29:04;;;;;;;;;;;;;;;;;;5114676;27;19916;-73
2022/03/21 04:31:30;;;;;;;;;;;;;;;;;;5114498;28;19916;-73
2022/03/21 04:33:55;;;;;;;;;;;;;;;;;;5114427;28;19965;-73
2022/03/21 04:36:21;;;;;;;;;;;;;;;;;;5114767;28;19919;-72
2022/03/21 04:38:46;;;;;;;;;;;;;;;;;;5114418;28;19943;-73
2022/03/21 04:41:12;;;;;;;;;;;;;;;;;;5113349;28;20414;-72
2022/03/21 04:43:37;;;;;;;;;;;;;;;;;;5113697;28;20292;-73
2022/03/21 04:46:02;;;;;;;;;;;;;;;;;;5114285;28;19950;-73
2022/03/21 04:48:27;;;;;;;;;;;;;;;;;;5113117;28;19916;-73
2022/03/21 04:50:53;;;;;;;;;;;;;;;;;;5114531;28;19916;-73
2022/03/21 04:53:18;;;;;;;;;;;;;;;;;;5114440;28;19969;-72
2022/03/21 04:55:44;;;;;;;;;;;;;;;;;;5113722;28;19923;-73
2022/03/21 04:58:09;;;;;;;;;;;;;;;;;;5113803;28;20019;-73
2022/03/21 05:00:35;;;;;;;;;;;;;;;;;;5114283;28;19967;-73
2022/03/21 05:03:01;;;;;;;;;;;;;;;;;;5114160;28;19915;-73
2022/03/21 05:05:27;;;;;;;;;;;;;;;;;;5114227;28;19920;-72
2022/03/21 05:07:55;;;;;;;;;;;;;;;;;;5114168;28;20254;-72
2022/03/21 05:10:24;;;;;;;;;;;;;;;;;;5113914;28;19915;-73
2022/03/21 05:12:50;;;;;;;;;;;;;;;;;;5114002;28;19916;-73
2022/03/21 05:15:16;;;;;;;;;;;;;;;;;;5113997;28;19920;-73
2022/03/21 05:17:43;;;;;;;;;;;;;;;;;;5114289;28;19927;-73
2022/03/21 05:20:11;;;;;;;;;;;;;;;;;;5118148;27;20010;-73
2022/03/21 05:22:37;;;;;;;;;;;;;;;;;;5118374;28;19977;-73
2022/03/21 05:35:58;;;;;;;;;;;;;;;;;;5116700;28;19915;-73
2022/03/21 05:38:30;;;;;;;;;;;;;;;;;;5116530;28;19924;-72
2022/03/21 05:40:58;;;;;;;;;;;;;;;;;;5117634;28;19982;-73
2022/03/21 05:43:24;;;;;;;;;;;;;;;;;;5117820;28;19958;-73
2022/03/21 05:45:51;;;;;;;;;;;;;;;;;;5117760;28;19939;-73
2022/03/21 05:51:01;;;;;;;;;;;;;;;;;;5116749;28;19927;-73
2022/03/21 05:53:26;;;;;;;;;;;;;;;;;;5117627;28;20371;-73
2022/03/21 05:55:51;;;;;;;;;;;;;;;;;;5117706;28;19916;-72
2022/03/21 05:58:16;;;;;;;;;;;;;;;;;;5117503;28;19923;-73
2022/03/21 06:00:42;;;;;;;;;;;;;;;;;;5116237;27;19919;-73
2022/03/21 06:03:09;;;;;;;;;;;;;;;;;;5115992;28;19922;-73
2022/03/21 06:05:35;;;;;;;;;;;;;;;;;;5117140;28;20369;-73
2022/03/21 06:08:00;;;;;;;;;;;;;;;;;;5117415;28;19915;-73
2022/03/21 06:10:26;;;;;;;;;;;;;;;;;;5117140;28;19922;-73
2022/03/21 06:12:51;;;;;;;;;;;;;;;;;;5117480;28;19923;-73
2022/03/21 06:15:17;;;;;;;;;;;;;;;;;;5117245;28;20441;-73
2022/03/21 06:17:43;;;;;;;;;;;;;;;;;;5115976;28;19920;-72
2022/03/21 06:20:09;;;;;;;;;;;;;;;;;;5117059;28;19915;-73
2022/03/21 06:22:35;;;;;;;;;;;;;;;;;;5115620;28;20052;-73
2022/03/21 06:25:00;;;;;;;;;;;;;;;;;;5117276;28;20411;-73
2022/03/21 06:27:26;;;;;;;;;;;;;;;;;;5115972;28;20322;-72
2022/03/21 06:29:51;;;;;;;;;;;;;;;;;;5115841;28;20004;-73
2022/03/21 06:32:17;;;;;;;;;;;;;;;;;;5116432;28;19959;-72
2022/03/21 06:34:42;;;;;;;;;;;;;;;;;;5116403;28;20001;-73
2022/03/21 06:37:08;;;;;;;;;;;;;;;;;;5116205;28;19923;-73
2022/03/21 06:39:34;;;;;;;;;;;;;;;;;;5116886;27;19919;-73
2022/03/21 06:41:59;;;;;;;;;;;;;;;;;;5115806;28;19916;-73
2022/03/21 06:44:24;;;;;;;;;;;;;;;;;;5116293;28;19970;-73
2022/03/21 06:46:49;;;;;;;;;;;;;;;;;;5116850;28;20430;-73
2022/03/21 06:49:15;;;;;;;;;;;;;;;;;;5115807;28;20050;-73
2022/03/21 06:51:40;;;;;;;;;;;;;;;;;;5116475;28;19924;-72
2022/03/21 06:54:05;;;;;;;;;;;;;;;;;;5116414;27;20284;-72
2022/03/21 06:56:31;;;;;;;;;;;;;;;;;;5116302;27;20314;-73
2022/03/21 06:58:56;;;;;;;;;;;;;;;;;;5116400;28;19960;-74
2022/03/21 07:01:21;;;;;;;;;;;;;;;;;;5116419;28;20010;-74
2022/03/21 07:03:46;;;;;;;;;;;;;;;;;;5116401;28;19968;-73
2022/03/21 07:06:12;;;;;;;;;;;;;;;;;;5115215;28;19977;-73
2022/03/21 07:08:38;;;;;;;;;;;;;;;;;;5115113;28;20381;-71
2022/03/21 07:11:03;;;;;;;;;;;;;;;;;;5116238;28;19928;-72
2022/03/21 07:13:29;;;;;;;;;;;;;;;;;;5115737;28;19923;-72
2022/03/21 07:15:55;;;;;;;;;;;;;;;;;;5115750;28;19959;-72
2022/03/21 07:18:20;;;;;;;;;;;;;;;;;;5115873;28;19970;-73
2022/03/21 07:20:45;;;;;;;;;;;;;;;;;;5116239;28;19916;-72
2022/03/21 07:23:11;;;;;;;;;;;;;;;;;;5114637;28;19916;-72
2022/03/21 07:25:36;;;;;;;;;;;;;;;;;;5115962;28;19920;-73
2022/03/21 07:28:01;;;;;;;;;;;;;;;;;;5116146;28;19916;-72
2022/03/21 07:30:27;;;;;;;;;;;;;;;;;;5114712;28;19959;-72
2022/03/21 07:32:52;;;;;;;;;;;;;;;;;;5115695;28;19919;-75
2022/03/21 07:35:18;;;;;;;;;;;;;;;;;;5115456;28;19920;-75
2022/03/21 07:37:43;;;;;;;;;;;;;;;;;;5115626;28;20330;-75
2022/03/21 07:40:10;;;;;;;;;;;;;;;;;;5114365;28;19915;-75
2022/03/21 07:42:37;;;;;;;;;;;;;;;;;;5115586;28;19923;-76
2022/03/21 07:47:47;;;;;;;;;;;;;;;;;;5104509;28;20014;-74
2022/03/21 07:50:12;;;;;;;;;;;;;;;;;;5100661;28;20053;-76
2022/03/21 07:52:37;;;;;;;;;;;;;;;;;;5093960;28;19923;-75
2022/03/21 07:55:03;;;;;;;;;;;;;;;;;;5095077;28;19916;-75
2022/03/21 07:57:29;;;;;;;;;;;;;;;;;;5093529;28;19926;-74
2022/03/21 07:59:54;;;;;;;;;;;;;;;;;;5094876;28;19920;-75
2022/03/21 08:02:21;;;;;;;;;;;;;;;;;;5105175;28;20289;-74
2022/03/21 08:04:50;;;;;;;;;;;;;;;;;;5113863;28;19917;-73
2022/03/21 08:07:15;;;;;;;;;;;;;;;;;;5114089;28;19919;-74
2022/03/21 08:09:41;;;;;;;;;;;;;;;;;;5114615;28;19960;-75
2022/03/21 08:12:07;;;;;;;;;;;;;;;;;;5113869;28;19980;-74
2022/03/21 08:14:32;;;;;;;;;;;;;;;;;;5115036;28;19955;-74
2022/03/21 08:16:59;;;;;;;;;;;;;;;;;;5114787;28;19963;-74
2022/03/21 08:19:25;;;;;;;;;;;;;;;;;;5115103;28;19922;-75
2022/03/21 08:21:53;;;;;;;;;;;;;;;;;;5114956;28;19915;-75
2022/03/21 08:24:19;;;;;;;;;;;;;;;;;;5113480;28;19971;-76
2022/03/21 08:26:44;;;;;;;;;;;;;;;;;;5114923;28;19919;-76
2022/03/21 08:29:10;;;;;;;;;;;;;;;;;;5115215;28;19922;-75
2022/03/21 08:31:35;;;;;;;;;;;;;;;;;;5113801;28;19926;-76
2022/03/21 08:34:03;;;;;;;;;;;;;;;;;;5114672;28;19926;-76
2022/03/21 08:36:28;;;;;;;;;;;;;;;;;;5113479;28;19922;-77
2022/03/21 08:38:54;;;;;;;;;;;;;;;;;;5114751;27;20010;-77
2022/03/21 08:41:21;;;;;;;;;;;;;;;;;;5114719;28;19938;-76
2022/03/21 08:43:47;;;;;;;;;;;;;;;;;;5113747;28;20338;-76
2022/03/21 08:46:12;;;;;;;;;;;;;;;;;;5113890;28;20018;-76
2022/03/21 08:51:21;;;;;;;;;;;;;;;;;;5113395;28;19916;-75
2022/03/21 08:53:47;;;;;;;;;;;;;;;;;;5113651;28;19961;-76
2022/03/21 08:56:12;;;;;;;;;;;;;;;;;;5095905;28;20341;-75
2022/03/21 08:58:37;;;;;;;;;;;;;;;;;;5114274;28;19969;-76
2022/03/21 09:01:03;;;;;;;;;;;;;;;;;;5113066;28;20369;-75
2022/03/21 09:03:28;;;;;;;;;;;;;;;;;;5114301;28;19961;-77
2022/03/21 09:05:53;;;;;;;;;;;;;;;;;;5112710;28;19966;-76
2022/03/21 09:08:19;;;;;;;;;;;;;;;;;;5114208;28;19915;-77
2022/03/21 09:10:44;;;;;;;;;;;;;;;;;;5114551;28;19927;-76
2022/03/21 09:13:10;;;;;;;;;;;;;;;;;;5112811;28;19916;-77
2022/03/21 09:15:35;;;;;;;;;;;;;;;;;;5093781;28;19941;-77
2022/03/21 09:18:02;;;;;;;;;;;;;;;;;;5094067;28;19978;-76
2022/03/21 09:20:27;;;;;;;;;;;;;;;;;;5093645;28;19969;-77
2022/03/21 09:22:53;;;;;;;;;;;;;;;;;;5093809;28;20015;-77
2022/03/21 09:25:18;;;;;;;;;;;;;;;;;;5093688;28;19916;-77
2022/03/21 09:27:43;;;;;;;;;;;;;;;;;;5093750;28;19923;-76
2022/03/21 09:30:10;;;;;;;;;;;;;;;;;;5092548;28;19960;-76
2022/03/21 09:32:35;;;;;;;;;;;;;;;;;;5109646;28;20022;-76
2022/03/21 09:35:00;;;;;;;;;;;;;;;;;;5112625;28;19962;-76
2022/03/21 09:37:26;;;;;;;;;;;;;;;;;;5102277;28;19920;-76
2022/03/21 09:39:51;;;;;;;;;;;;;;;;;;5093720;28;20337;-73
2022/03/21 09:42:17;;;;;;;;;;;;;;;;;;5092293;28;19943;-77
2022/03/21 09:44:43;;;;;;;;;;;;;;;;;;5093647;28;19924;-76
2022/03/21 09:49:56;;;;;;;;;;;;;;;;;;5093489;28;19963;-75
2022/03/21 09:52:21;;;;;;;;;;;;;;;;;;5093319;28;19923;-74
2022/03/21 09:54:47;;;;;;;;;;;;;;;;;;5093118;28;19920;-74
2022/03/21 09:57:12;;;;;;;;;;;;;;;;;;5105937;28;19920;-75
2022/03/21 09:59:38;;;;;;;;;;;;;;;;;;5112086;28;19966;-76
2022/03/21 10:02:04;;;;;;;;;;;;;;;;;;5113589;28;19923;-76
2022/03/21 10:04:29;;;;;;;;;;;;;;;;;;5114558;28;19983;-76
2022/03/21 10:06:58;;;;;;;;;;;;;;;;;;5117747;28;20540;-76
2022/03/21 10:09:25;;;;;;;;;;;;;;;;;;5117775;28;20251;-76
2022/03/21 10:11:54;;;;;;;;;;;;;;;;;;5117185;28;20336;-77
2022/03/21 10:14:27;;;;;;;;;;;;;;;;;;5117828;28;20018;-76
2022/03/21 10:16:57;;;;;;;;;;;;;;;;;;5117685;28;19945;-77
2022/03/21 10:19:22;;;;;;;;;;;;;;;;;;5117324;28;19973;-77
2022/03/21 10:22:05;;;;;;;;;;;;;;;;;;5119551;27;19950;-78
2022/03/21 10:24:34;;;;;;;;;;;;;;;;;;5138957;27;20380;-79
2022/03/21 10:26:59;;;;;;;;;;;;;;;;;;5139445;27;19923;-76
2022/03/21 10:29:24;;;;;;;;;;;;;;;;;;5137721;27;19919;-77
2022/03/21 10:31:52;;;;;;;;;;;;;;;;;;5132210;27;19922;-75
2022/03/21 10:34:18;;;;;;;;;;;;;;;;;;5117461;28;19916;-77
2022/03/21 10:36:57;;;;;;;;;;;;;;;;;;5120458;28;20058;-77
2022/03/21 10:39:22;;;;;;;;;;;;;;;;;;5119795;28;19912;-77
2022/03/21 10:41:53;;;;;;;;;;;;;;;;;;5117377;28;19918;-77
2022/03/21 10:44:20;;;;;;;;;;;;;;;;;;5116743;28;20049;-77
2022/03/21 10:46:50;;;;;;;;;;;;;;;;;;5117264;27;19920;-76
2022/03/21 10:49:15;;;;;;;;;;;;;;;;;;5117230;28;20014;-76
2022/03/21 10:51:47;;;;;;;;;;;;;;;;;;5116912;28;19955;-76
2022/03/21 10:54:31;;;;;;;;;;;;;;;;;;5116844;28;19916;-76
2022/03/21 10:56:57;;;;;;;;;;;;;;;;;;5116399;28;19926;-76
2022/03/21 10:59:22;;;;;;;;;;;;;;;;;;5116410;28;19916;-76
2022/03/21 11:01:47;;;;;;;;;;;;;;;;;;5116918;28;19947;-76
2022/03/21 11:04:13;;;;;;;;;;;;;;;;;;5116600;28;19968;-76
2022/03/21 11:06:38;;;;;;;;;;;;;;;;;;5116364;28;19922;-76
2022/03/21 11:09:04;;;;;;;;;;;;;;;;;;5116446;28;20538;-76
2022/03/21 11:11:29;;;;;;;;;;;;;;;;;;5115860;28;19916;-75
2022/03/21 11:13:55;;;;;;;;;;;;;;;;;;5115870;28;19920;-76
2022/03/21 11:16:21;;;;;;;;;;;;;;;;;;5115755;28;19915;-75
2022/03/21 11:18:47;;;;;;;;;;;;;;;;;;5116112;28;19920;-75
2022/03/21 11:21:13;;;;;;;;;;;;;;;;;;5116265;28;19922;-75
2022/03/21 11:23:39;;;;;;;;;;;;;;;;;;5115013;27;20003;-75
2022/03/21 11:26:10;;;;;;;;;;;;;;;;;;5115816;27;20375;-75
2022/03/21 11:28:41;;;;;;;;;;;;;;;;;;5114964;28;19955;-74
2022/03/21 11:31:10;;;;;;;;;;;;;;;;;;5115982;28;19955;-74
2022/03/21 11:33:45;;;;;;;;;;;;;;;;;;5115617;28;19999;-74
2022/03/21 11:36:11;;;;;;;;;;;;;;;;;;5115827;28;19916;-74
2022/03/21 11:38:47;;;;;;;;;;;;;;;;;;5115327;27;19972;-74
2022/03/21 11:41:23;;;;;;;;;;;;;;;;;;5115758;28;20361;-74
2022/03/21 11:44:03;;;;;;;;;;;;;;;;;;5115573;28;19941;-74
2022/03/21 11:46:29;;;;;;;;;;;;;;;;;;5115474;28;20494;-75
2022/03/21 11:48:55;;;;;;;;;;;;;;;;;;5114456;28;20403;-74
2022/03/21 11:51:21;;;;;;;;;;;;;;;;;;5114340;28;19916;-75
2022/03/21 11:53:49;;;;;;;;;;;;;;;;;;5114434;28;19919;-74
2022/03/21 11:56:18;;;;;;;;;;;;;;;;;;5115352;28;20266;-74
2022/03/21 11:58:46;;;;;;;;;;;;;;;;;;5113642;28;20373;-74
2022/03/21 12:01:13;;;;;;;;;;;;;;;;;;5114991;28;20015;-74
2022/03/21 12:03:41;;;;;;;;;;;;;;;;;;5114034;28;19923;-75
2022/03/21 12:06:30;;;;;;;;;;;;;;;;;;5114979;28;19916;-75
2022/03/21 12:08:58;;;;;;;;;;;;;;;;;;5115071;28;19999;-75
2022/03/21 12:11:39;;;;;;;;;;;;;;;;;;5115113;28;19945;-75
2022/03/21 12:14:23;;;;;;;;;;;;;;;;;;5114053;27;19915;-75
2022/03/21 12:17:00;;;;;;;;;;;;;;;;;;5114768;28;19920;-74
2022/03/21 12:19:25;;;;;;;;;;;;;;;;;;5114870;28;20261;-75
2022/03/21 12:22:10;;;;;;;;;;;;;;;;;;5114787;28;19916;-75
2022/03/21 12:24:48;;;;;;;;;;;;;;;;;;5114443;28;19915;-75
2022/03/21 12:27:29;;;;;;;;;;;;;;;;;;5113942;28;19923;-74
2022/03/21 12:30:14;;;;;;;;;;;;;;;;;;5114643;28;20422;-75
2022/03/21 12:32:59;;;;;;;;;;;;;;;;;;5114533;28;19920;-74
2022/03/21 12:35:30;;;;;;;;;;;;;;;;;;5114590;28;19916;-74
2022/03/21 12:37:59;;;;;;;;;;;;;;;;;;5096362;28;19923;-74
2022/03/21 12:40:25;;;;;;;;;;;;;;;;;;5114589;28;19924;-74
2022/03/21 12:42:50;;;;;;;;;;;;;;;;;;5114430;28;19916;-75
2022/03/21 12:45:17;;;;;;;;;;;;;;;;;;5113299;28;20265;-74
2022/03/21 12:47:42;;;;;;;;;;;;;;;;;;5113194;28;19922;-73
2022/03/21 12:50:08;;;;;;;;;;;;;;;;;;5114867;28;19915;-79
2022/03/21 12:52:34;;;;;;;;;;;;;;;;;;5114716;28;20003;-79
2022/03/21 12:55:03;;;;;;;;;;;;;;;;;;5113233;28;20381;-77
2022/03/21 12:57:28;;;;;;;;;;;;;;;;;;5113071;28;19951;-77
2022/03/21 13:00:14;;;;;;;;;;;;;;;;;;5096695;28;19965;-75
2022/03/21 13:02:39;;;;;;;;;;;;;;;;;;5113143;28;19919;-77
2022/03/21 13:10:32;;;;;;;;;;;;;;;;;;5114062;28;19922;-75
2022/03/21 13:12:59;;;;;;;;;;;;;;;;;;5114202;28;19915;-75
2022/03/21 13:15:24;;;;;;;;;;;;;;;;;;5113019;28;19937;-75
2022/03/21 13:17:57;;;;;;;;;;;;;;;;;;5114043;28;20374;-75
2022/03/21 13:20:26;;;;;;;;;;;;;;;;;;5114227;28;19922;-76
2022/03/21 13:22:52;;;;;;;;;;;;;;;;;;5114205;28;19916;-76
2022/03/21 13:25:20;;;;;;;;;;;;;;;;;;5113893;28;20353;-77
2022/03/21 13:27:46;;;;;;;;;;;;;;;;;;5114250;28;19916;-74
2022/03/21 13:30:11;;;;;;;;;;;;;;;;;;5114275;28;19916;-75
2022/03/21 13:32:43;;;;;;;;;;;;;;;;;;5113459;28;19920;-73
2022/03/21 13:35:11;;;;;;;;;;;;;;;;;;5113812;28;19999;-73
2022/03/21 13:37:37;;;;;;;;;;;;;;;;;;5113245;28;20019;-73
2022/03/21 13:40:04;;;;;;;;;;;;;;;;;;5117414;28;19955;-73
2022/03/21 13:42:33;;;;;;;;;;;;;;;;;;5118086;28;19916;-74
2022/03/21 13:45:02;;;;;;;;;;;;;;;;;;5117812;28;20278;-73
2022/03/21 13:47:28;;;;;;;;;;;;;;;;;;5117885;28;19937;-73
2022/03/21 13:50:02;;;;;;;;;;;;;;;;;;5117893;28;19916;-73
2022/03/21 13:52:47;;;;;;;;;;;;;;;;;;5116923;28;19916;-73
2022/03/21 13:55:16;;;;;;;;;;;;;;;;;;5117742;28;20272;-73
2022/03/21 13:57:43;;;;;;;;;;;;;;;;;;5117554;28;19919;-73
2022/03/21 14:00:08;;;;;;;;;;;;;;;;;;5117547;28;19990;-73
2022/03/21 14:02:41;;;;;;;;;;;;;;;;;;5117175;28;19938;-75
2022/03/21 14:05:20;;;;;;;;;;;;;;;;;;5117291;28;19961;-76
2022/03/21 14:07:48;;;;;;;;;;;;;;;;;;5117601;28;19987;-77
2022/03/21 14:10:21;;;;;;;;;;;;;;;;;;5117183;28;19973;-76
2022/03/21 14:12:48;;;;;;;;;;;;;;;;;;5116532;28;20289;-77
2022/03/21 14:15:14;;;;;;;;;;;;;;;;;;5116983;28;20365;-77
2022/03/21 14:17:39;;;;;;;;;;;;;;;;;;5117338;28;20012;-77
2022/03/21 14:20:06;;;;;;;;;;;;;;;;;;5117491;28;19919;-77
2022/03/21 14:22:31;;;;;;;;;;;;;;;;;;5117361;28;19916;-77
2022/03/21 14:24:56;;;;;;;;;;;;;;;;;;5115793;28;19984;-77
2022/03/21 14:27:22;;;;;;;;;;;;;;;;;;5117236;28;19922;-77
2022/03/21 14:29:47;;;;;;;;;;;;;;;;;;5117184;28;19981;-76
2022/03/21 14:32:12;;;;;;;;;;;;;;;;;;5117027;28;19926;-76
2022/03/21 14:34:38;;;;;;;;;;;;;;;;;;5117103;27;19924;-76
2022/03/21 14:37:06;;;;;;;;;;;;;;;;;;5115009;28;21531;-77
2022/03/21 14:39:31;;;;;;;;;;;;;;;;;;5117033;28;20014;-76
2022/03/21 14:41:56;;;;;;;;;;;;;;;;;;5116150;28;19916;-76
2022/03/21 14:44:25;;;;;;;;;;;;;;;;;;5116841;28;19969;-77
2022/03/21 14:46:51;;;;;;;;;;;;;;;;;;5115534;28;19915;-77
2022/03/21 14:49:16;;;;;;;;;;;;;;;;;;5116741;28;20373;-76
2022/03/21 14:51:43;;;;;;;;;;;;;;;;;;5115774;28;19923;-77
2022/03/21 14:54:08;;;;;;;;;;;;;;;;;;5115264;28;19965;-76
2022/03/21 14:56:34;;;;;;;;;;;;;;;;;;5116623;27;19915;-76
2022/03/21 14:58:59;;;;;;;;;;;;;;;;;;5116477;28;19920;-77
2022/03/21 15:01:25;;;;;;;;;;;;;;;;;;5116463;28;19922;-77
2022/03/21 15:03:50;;;;;;;;;;;;;;;;;;5116541;28;19922;-76
2022/03/21 15:06:16;;;;;;;;;;;;;;;;;;5116538;28;20277;-77
2022/03/21 15:08:41;;;;;;;;;;;;;;;;;;5116167;28;19915;-77
2022/03/21 15:11:07;;;;;;;;;;;;;;;;;;5116576;28;20284;-76
2022/03/21 15:13:32;;;;;;;;;;;;;;;;;;5115398;28;19951;-77
2022/03/21 15:15:57;;;;;;;;;;;;;;;;;;5116362;28;19916;-77
2022/03/21 15:18:23;;;;;;;;;;;;;;;;;;5116277;28;19967;-76
2022/03/21 15:20:48;;;;;;;;;;;;;;;;;;5116068;28;19916;-77
2022/03/21 15:23:14;;;;;;;;;;;;;;;;;;5115984;28;19916;-77
2022/03/21 15:25:40;;;;;;;;;;;;;;;;;;5116117;28;19916;-76
2022/03/21 15:28:06;;;;;;;;;;;;;;;;;;5114598;28;19916;-75
2022/03/21 15:30:31;;;;;;;;;;;;;;;;;;5116019;28;19969;-76
2022/03/21 15:32:57;;;;;;;;;;;;;;;;;;5115246;28;20007;-77
2022/03/21 15:35:22;;;;;;;;;;;;;;;;;;5116496;28;19924;-77
2022/03/21 15:43:16;;;;;;;;;;;;;;;;;;5115669;28;20007;-77
2022/03/21 15:45:41;;;;;;;;;;;;;;;;;;5115003;28;19959;-77
2022/03/21 15:48:07;;;;;;;;;;;;;;;;;;5115352;28;19954;-77
2022/03/21 15:50:34;;;;;;;;;;;;;;;;;;5117551;28;19915;-78
2022/03/21 15:52:59;;;;;;;;;;;;;;;;;;5116769;28;19916;-77
2022/03/21 15:55:25;;;;;;;;;;;;;;;;;;5115299;28;19980;-77
2022/03/21 15:57:56;;;;;;;;;;;;;;;;;;5115082;28;19943;-75
2022/03/21 16:00:23;;;;;;;;;;;;;;;;;;5113965;28;20018;-77
2022/03/21 16:02:49;;;;;;;;;;;;;;;;;;5115299;28;19973;-77
2022/03/21 16:05:14;;;;;;;;;;;;;;;;;;5115112;28;19919;-77
2022/03/21 16:07:40;;;;;;;;;;;;;;;;;;5115386;28;19919;-78
2022/03/21 16:10:07;;;;;;;;;;;;;;;;;;5115626;28;20014;-77
2022/03/21 16:12:32;;;;;;;;;;;;;;;;;;5115205;28;19920;-76
2022/03/21 16:14:59;;;;;;;;;;;;;;;;;;5112639;28;19916;-77
2022/03/21 16:17:25;;;;;;;;;;;;;;;;;;5113833;28;19927;-77
2022/03/21 16:19:50;;;;;;;;;;;;;;;;;;5115211;28;19915;-77
2022/03/21 16:22:16;;;;;;;;;;;;;;;;;;5113660;28;19951;-77
2022/03/21 16:24:41;;;;;;;;;;;;;;;;;;5114825;28;20354;-77
2022/03/21 16:27:07;;;;;;;;;;;;;;;;;;5114813;28;19922;-77
2022/03/21 16:29:33;;;;;;;;;;;;;;;;;;5113328;28;19915;-77
2022/03/21 16:32:05;;;;;;;;;;;;;;;;;;5114445;28;19916;-77
2022/03/21 16:34:31;;;;;;;;;;;;;;;;;;5114495;28;19981;-77
2022/03/21 16:36:56;;;;;;;;;;;;;;;;;;5114506;28;19915;-77
2022/03/21 16:39:22;;;;;;;;;;;;;;;;;;5113323;28;20258;-76
2022/03/21 16:41:47;;;;;;;;;;;;;;;;;;5095711;28;19922;-77
2022/03/21 16:44:12;;;;;;;;;;;;;;;;;;5114458;28;19916;-77
2022/03/21 16:46:38;;;;;;;;;;;;;;;;;;5114294;28;19916;-77
2022/03/21 16:49:05;;;;;;;;;;;;;;;;;;5114542;28;19915;-77
2022/03/21 16:51:30;;;;;;;;;;;;;;;;;;5114519;28;19916;-77
2022/03/21 16:53:56;;;;;;;;;;;;;;;;;;5113178;28;19916;-77
2022/03/21 16:56:22;;;;;;;;;;;;;;;;;;5114443;28;19923;-77
2022/03/21 16:58:47;;;;;;;;;;;;;;;;;;5096080;28;19920;-77
2022/03/21 17:01:14;;;;;;;;;;;;;;;;;;5114392;28;20281;-76
2022/03/21 17:03:41;;;;;;;;;;;;;;;;;;5114413;28;20454;-77
2022/03/21 17:06:07;;;;;;;;;;;;;;;;;;5114368;28;20014;-76
2022/03/21 17:08:32;;;;;;;;;;;;;;;;;;5114391;28;20004;-76
2022/03/21 17:10:57;;;;;;;;;;;;;;;;;;5114321;28;19923;-76
2022/03/21 17:13:23;;;;;;;;;;;;;;;;;;5115765;28;19920;-77
2022/03/21 17:15:49;;;;;;;;;;;;;;;;;;5121013;27;19922;-76
2022/03/21 17:23:43;;;;;;;;;;;;;;;;;;5120952;28;19915;-76